createdAt,value
2019-05-22T00:01:25.653Z,100725.02
2019-05-22T00:04:00.964Z,100732.61
2019-05-22T00:06:36.845Z,100726.64
2019-05-22T00:09:11.059Z,100740.79
2019-05-22T00:11:44.448Z,100737.41
2019-05-22T00:14:15.774Z,100745.75
2019-05-22T00:16:47.106Z,100741.69
2019-05-22T00:19:18.949Z,100740.69
2019-05-22T00:21:51.444Z,100749.97
2019-05-22T00:24:25.465Z,100748.17
2019-05-22T00:26:55.819Z,100755.52
2019-05-22T00:29:25.449Z,100754.25
2019-05-22T00:31:56.280Z,100752.83
2019-05-22T00:34:26.512Z,100754.17
2019-05-22T00:36:59.042Z,100753.28
2019-05-22T00:39:30.873Z,100759.39
2019-05-22T00:42:01.180Z,100747.76
2019-05-22T00:44:35.217Z,100753.34
2019-05-22T00:47:14.157Z,100750.59
2019-05-22T00:49:46.627Z,100762.87
2019-05-22T00:52:42.872Z,100764.94
2019-05-22T00:55:30.022Z,100758.66
2019-05-22T00:58:11.328Z,100756.21
2019-05-22T01:00:50.833Z,100757.61
2019-05-22T01:03:24.735Z,100758.50
2019-05-22T01:05:55.082Z,100760.75
2019-05-22T01:08:28.470Z,100771.80
2019-05-22T01:11:00.627Z,100771.06
2019-05-22T01:13:33.167Z,100777.34
2019-05-22T01:16:03.252Z,100782.87
2019-05-22T01:18:33.034Z,100785.27
2019-05-22T01:21:04.741Z,100782.20
2019-05-22T01:23:39.099Z,100786.91
2019-05-22T01:26:11.519Z,100780.31
2019-05-22T01:28:41.061Z,100782.66
2019-05-22T01:31:15.594Z,100783.47
2019-05-22T01:33:54.745Z,100777.63
2019-05-22T01:36:26.836Z,100776.14
2019-05-22T01:39:03.593Z,100781.30
2019-05-22T01:41:34.169Z,100773.91
2019-05-22T01:44:07.048Z,100778.84
2019-05-22T01:46:40.109Z,100769.21
2019-05-22T01:49:13.354Z,100773.92
2019-05-22T01:51:43.040Z,100778.11
2019-05-22T01:54:12.777Z,100776.59
2019-05-22T01:56:42.992Z,100782.59
2019-05-22T01:59:13.819Z,100774.65
2019-05-22T02:01:45.381Z,100781.98
2019-05-22T02:04:16.913Z,100782.14
2019-05-22T02:06:48.162Z,100785.95
2019-05-22T02:09:28.872Z,100784.08
2019-05-22T02:12:07.738Z,100787.43
2019-05-22T02:14:41.471Z,100790.64
2019-05-22T02:17:12.199Z,100796.77
2019-05-22T02:19:42.090Z,100797.66
2019-05-22T02:22:13.218Z,100802.75
2019-05-22T02:24:42.684Z,100801.33
2019-05-22T02:27:13.921Z,100808.13
2019-05-22T02:29:44.829Z,100811.98
2019-05-22T02:32:14.856Z,100811.39
2019-05-22T02:34:44.974Z,100807.23
2019-05-22T02:37:16.334Z,100802.87
2019-05-22T02:39:47.371Z,100809.53
2019-05-22T02:42:23.776Z,100806.99
2019-05-22T02:44:53.328Z,100817.67
2019-05-22T02:47:23.838Z,100823.96
2019-05-22T02:49:56.117Z,100832.03
2019-05-22T02:52:27.306Z,100829.94
2019-05-22T02:54:57.100Z,100833.37
2019-05-22T02:57:28.387Z,100830.77
2019-05-22T02:59:59.206Z,100825.27
2019-05-22T03:02:30.339Z,100831.88
2019-05-22T03:05:11.695Z,100841.67
2019-05-22T03:07:41.786Z,100839.15
2019-05-22T03:10:16.234Z,100843.42
2019-05-22T03:12:46.518Z,100847.09
2019-05-22T03:15:18.082Z,100844.80
2019-05-22T03:17:53.506Z,100849.30
2019-05-22T03:20:24.265Z,100846.22
2019-05-22T03:23:14.571Z,100847.91
2019-05-22T03:25:44.703Z,100843.52
2019-05-22T03:28:15.157Z,100853.66
2019-05-22T03:30:45.491Z,100852.34
2019-05-22T03:33:16.719Z,100847.66
2019-05-22T03:35:48.623Z,100857.28
2019-05-22T03:38:20.639Z,100852.44
2019-05-22T03:40:52.487Z,100852.15
2019-05-22T03:43:23.824Z,100857.60
2019-05-22T03:45:56.466Z,100858.98
2019-05-22T03:48:28.409Z,100861.55
2019-05-22T03:51:07.129Z,100870.14
2019-05-22T03:53:36.801Z,100860.83
2019-05-22T03:56:06.363Z,100857.14
2019-05-22T03:58:36.409Z,100858.80
2019-05-22T04:01:06.890Z,100863.60
2019-05-22T04:03:36.346Z,100865.52
2019-05-22T04:06:07.100Z,100868.30
2019-05-22T04:08:37.667Z,100865.78
2019-05-22T04:11:08.843Z,100873.49
2019-05-22T04:13:38.910Z,100869.32
2019-05-22T04:16:10.587Z,100881.04
2019-05-22T04:18:40.864Z,100883.24
2019-05-22T04:21:10.300Z,100886.09
2019-05-22T04:23:40.076Z,100896.10
2019-05-22T04:26:12.854Z,100896.24
2019-05-22T04:28:51.139Z,100899.05
2019-05-22T04:31:31.666Z,100898.75
2019-05-22T04:34:01.655Z,100902.20
2019-05-22T04:36:31.055Z,100894.59
2019-05-22T04:39:02.322Z,100904.17
2019-05-22T04:41:32.601Z,100901.91
2019-05-22T04:44:01.985Z,100902.09
2019-05-22T04:46:31.651Z,100910.44
2019-05-22T04:49:01.071Z,100904.78
2019-05-22T04:51:31.200Z,100911.50
2019-05-22T04:54:00.695Z,100904.95
2019-05-22T04:56:30.824Z,100905.88
2019-05-22T04:59:02.235Z,100914.70
2019-05-22T05:01:32.520Z,100911.22
2019-05-22T05:04:03.103Z,100913.97
2019-05-22T05:06:35.879Z,100920.36
2019-05-22T05:09:10.694Z,100926.91
2019-05-22T05:11:40.590Z,100921.00
2019-05-22T05:14:10.122Z,100920.28
2019-05-22T05:16:39.999Z,100925.63
2019-05-22T05:19:09.715Z,100936.64
2019-05-22T05:21:39.890Z,100934.89
2019-05-22T05:24:09.762Z,100941.36
2019-05-22T05:26:39.407Z,100939.67
2019-05-22T05:29:27.931Z,100930.01
2019-05-22T05:31:59.098Z,100938.16
2019-05-22T05:34:52.137Z,100938.52
2019-05-22T05:37:23.705Z,100941.13
2019-05-22T05:40:43.243Z,100944.08
2019-05-22T05:43:17.671Z,100950.51
2019-05-22T05:45:49.854Z,100950.68
2019-05-22T05:48:31.534Z,100946.67
2019-05-22T05:51:39.396Z,100955.72
2019-05-22T05:54:20.573Z,100951.14
2019-05-22T05:56:51.272Z,100954.20
2019-05-22T05:59:25.029Z,100961.03
2019-05-22T06:01:58.033Z,100963.11
2019-05-22T06:04:37.193Z,100954.55
2019-05-22T06:07:26.473Z,100957.13
2019-05-22T06:10:33.010Z,100957.18
2019-05-22T06:13:04.544Z,100973.20
2019-05-22T06:16:00.609Z,100966.35
2019-05-22T06:18:35.754Z,100964.95
2019-05-22T06:21:07.506Z,100966.83
2019-05-22T06:24:14.315Z,100970.62
2019-05-22T06:26:54.809Z,100972.14
2019-05-22T06:29:28.251Z,100978.78
2019-05-22T06:32:43.329Z,100983.77
2019-05-22T06:35:13.173Z,100988.24
2019-05-22T06:37:51.463Z,100984.11
2019-05-22T06:40:21.322Z,100992.16
2019-05-22T06:43:25.818Z,100989.70
2019-05-22T06:45:55.529Z,101000.09
2019-05-22T06:48:24.989Z,100991.55
2019-05-22T06:50:54.544Z,100996.47
2019-05-22T06:53:24.087Z,100995.23
2019-05-22T06:55:53.509Z,100997.55
2019-05-22T06:58:22.940Z,100998.27
2019-05-22T07:00:52.599Z,101003.02
2019-05-22T07:03:22.242Z,101006.26
2019-05-22T07:05:53.525Z,101010.55
2019-05-22T07:08:23.508Z,101018.27
2019-05-22T07:10:53.478Z,101021.05
2019-05-22T07:13:23.001Z,101026.94
2019-05-22T07:15:53.965Z,101036.26
2019-05-22T07:18:26.737Z,101034.81
2019-05-22T07:20:58.199Z,101032.77
2019-05-22T07:23:29.672Z,101039.73
2019-05-22T07:26:00.951Z,101042.09
2019-05-22T07:28:31.471Z,101040.83
2019-05-22T07:31:01.375Z,101031.45
2019-05-22T07:33:30.828Z,101036.34
2019-05-22T07:36:17.213Z,101041.23
2019-05-22T07:38:33.529Z,101034.66
2019-05-22T07:41:03.996Z,101041.70
2019-05-22T07:43:33.941Z,101040.69
2019-05-22T07:46:03.678Z,101035.48
2019-05-22T07:48:33.378Z,101037.44
2019-05-22T07:51:03.570Z,101039.08
2019-05-22T07:53:33.169Z,101040.20
2019-05-22T07:56:06.101Z,101040.21
2019-05-22T07:58:36.166Z,101045.33
2019-05-22T08:01:06.580Z,101046.11
2019-05-22T08:03:37.180Z,101045.31
2019-05-22T08:06:06.942Z,101041.95
2019-05-22T08:08:37.238Z,101035.01
2019-05-22T08:11:07.791Z,101035.08
2019-05-22T08:13:37.974Z,101041.82
2019-05-22T08:16:08.514Z,101044.22
2019-05-22T08:18:39.473Z,101040.11
2019-05-22T08:21:09.232Z,101044.30
2019-05-22T08:23:38.984Z,101046.98
2019-05-22T08:26:10.786Z,101044.73
2019-05-22T08:28:41.170Z,101047.63
2019-05-22T08:31:12.878Z,101053.09
2019-05-22T08:33:42.846Z,101052.81
2019-05-22T08:36:12.365Z,101046.94
2019-05-22T08:38:42.802Z,101055.55
2019-05-22T08:41:14.552Z,101056.20
2019-05-22T08:44:15.457Z,101055.33
2019-05-22T08:46:18.353Z,101057.89
2019-05-22T08:48:49.285Z,101057.66
2019-05-22T08:51:19.032Z,101057.86
2019-05-22T08:53:49.118Z,101064.08
2019-05-22T08:56:19.937Z,101062.14
2019-05-22T08:58:50.235Z,101066.25
2019-05-22T09:01:19.883Z,101067.77
2019-05-22T09:03:49.768Z,101070.89
2019-05-22T09:06:19.498Z,101071.17
2019-05-22T09:08:48.937Z,101070.39
2019-05-22T09:11:18.394Z,101070.25
2019-05-22T09:13:47.952Z,101075.66
2019-05-22T09:16:18.543Z,101079.75
2019-05-22T09:18:48.324Z,101082.00
2019-05-22T09:21:18.271Z,101086.77
2019-05-22T09:23:48.129Z,101083.10
2019-05-22T09:26:18.473Z,101087.03
2019-05-22T09:28:48.403Z,101083.89
2019-05-22T09:31:18.749Z,101089.68
2019-05-22T09:33:48.230Z,101087.09
2019-05-22T09:36:17.807Z,101093.89
2019-05-22T09:38:47.508Z,101087.05
2019-05-22T09:41:17.229Z,101088.23
2019-05-22T09:43:57.154Z,101090.33
2019-05-22T09:46:26.607Z,101091.81
2019-05-22T09:48:56.858Z,101102.86
2019-05-22T09:51:26.423Z,101102.63
2019-05-22T09:53:56.989Z,101103.30
2019-05-22T09:56:27.210Z,101102.20
2019-05-22T09:58:56.634Z,101099.78
2019-05-22T10:01:26.198Z,101100.41
2019-05-22T10:03:55.749Z,101097.78
2019-05-22T10:06:25.332Z,101099.00
2019-05-22T10:08:54.781Z,101098.73
2019-05-22T10:11:24.560Z,101096.17
2019-05-22T10:13:54.033Z,101098.73
2019-05-22T10:16:23.479Z,101100.56
2019-05-22T10:18:53.709Z,101099.23
2019-05-22T10:21:23.541Z,101099.31
2019-05-22T10:23:53.196Z,101113.59
2019-05-22T10:26:23.253Z,101099.33
2019-05-22T10:28:53.107Z,101105.64
2019-05-22T10:31:23.320Z,101095.41
2019-05-22T10:33:52.699Z,101099.54
2019-05-22T10:36:22.805Z,101100.12
2019-05-22T10:38:52.199Z,101107.33
2019-05-22T10:41:22.247Z,101107.04
2019-05-22T10:43:52.048Z,101108.84
2019-05-22T10:46:22.199Z,101104.09
2019-05-22T10:48:51.609Z,101098.40
2019-05-22T10:51:21.403Z,101095.42
2019-05-22T10:53:50.963Z,101096.22
2019-05-22T10:56:20.388Z,101097.45
2019-05-22T10:58:49.801Z,101096.03
2019-05-22T11:01:19.357Z,101096.90
2019-05-22T11:03:48.789Z,101095.56
2019-05-22T11:06:18.529Z,101093.41
2019-05-22T11:08:48.068Z,101098.47
2019-05-22T11:11:17.843Z,101095.27
2019-05-22T11:14:00.665Z,101097.29
2019-05-22T11:16:19.127Z,101099.50
2019-05-22T11:18:51.281Z,101100.70
2019-05-22T11:21:20.231Z,101093.53
2019-05-22T11:23:52.404Z,101097.10
2019-05-22T11:26:20.070Z,101089.66
2019-05-22T11:28:52.025Z,101085.33
2019-05-22T11:31:24.401Z,101081.37
2019-05-22T11:33:53.079Z,101093.31
2019-05-22T11:36:25.554Z,101081.90
2019-05-22T12:14:07.835Z,101071.01
2019-05-22T12:16:36.776Z,101073.52
2019-05-22T12:19:06.126Z,101059.73
2019-05-22T12:21:35.051Z,101055.64
2019-05-22T12:24:03.758Z,101053.40
2019-05-22T12:26:32.758Z,101067.93
2019-05-22T12:29:01.917Z,101064.80
2019-05-22T12:31:32.711Z,101069.28
2019-05-22T12:34:01.929Z,101057.00
2019-05-22T12:36:30.616Z,101057.03
2019-05-22T12:38:59.920Z,101058.89
2019-05-22T12:41:28.994Z,101051.08
2019-05-22T12:43:57.710Z,101041.89
2019-05-22T12:46:28.358Z,101055.31
2019-05-22T12:48:57.631Z,101057.95
2019-05-22T12:51:27.309Z,101045.39
2019-05-22T12:53:56.232Z,101052.38
2019-05-22T12:56:26.071Z,101053.59
2019-05-22T12:58:56.658Z,101053.16
2019-05-22T13:01:26.077Z,101045.03
2019-05-22T13:03:56.948Z,101041.93
2019-05-22T13:06:26.011Z,101037.50
2019-05-22T13:08:54.738Z,101043.70
2019-05-22T13:11:23.993Z,101032.33
2019-05-22T13:13:52.657Z,101037.94
2019-05-22T13:16:21.886Z,101036.50
2019-05-22T13:18:51.387Z,101033.73
2019-05-22T13:21:22.399Z,101037.16
2019-05-22T13:23:52.426Z,101028.14
2019-05-22T13:26:22.164Z,101035.72
2019-05-22T13:28:50.920Z,101039.22
2019-05-22T13:31:19.859Z,101035.80
2019-05-22T13:33:48.666Z,101042.89
2019-05-22T13:36:19.039Z,101024.45
2019-05-22T13:38:48.386Z,101027.89
2019-05-22T13:41:17.278Z,101030.97
2019-05-22T13:43:46.489Z,101034.35
2019-05-22T13:46:15.941Z,101041.20
2019-05-22T13:48:44.913Z,101035.39
2019-05-22T13:51:15.136Z,101031.44
2019-05-22T13:53:44.506Z,101035.54
2019-05-22T13:56:13.281Z,101030.34
2019-05-22T13:58:43.171Z,101027.14
2019-05-22T14:01:12.560Z,101028.20
2019-05-22T14:03:41.494Z,101022.89
2019-05-22T14:06:10.373Z,101035.53
2019-05-22T14:08:39.080Z,101024.84
2019-05-22T14:11:08.685Z,101026.14
2019-05-22T14:13:38.355Z,101026.87
2019-05-22T14:16:07.343Z,101017.23
2019-05-22T14:18:36.169Z,101022.91
2019-05-22T14:21:05.107Z,101016.91
2019-05-22T14:23:33.987Z,101013.31
2019-05-22T14:26:02.854Z,101012.05
2019-05-22T14:28:33.184Z,101020.52
2019-05-22T14:31:01.917Z,101023.47
2019-05-22T14:33:30.840Z,101026.72
2019-05-22T14:35:59.614Z,101028.54
2019-05-22T14:38:29.222Z,101022.83
2019-05-22T14:40:58.056Z,101025.79
2019-05-22T14:43:26.787Z,101026.55
2019-05-22T14:45:55.501Z,101028.12
2019-05-22T14:48:24.878Z,101017.20
2019-05-22T14:50:53.561Z,101019.48
2019-05-22T14:53:22.452Z,101022.16
2019-05-22T14:55:52.114Z,101013.11
2019-05-22T14:58:20.842Z,101022.50
2019-05-22T15:00:49.783Z,101028.22
2019-05-22T15:03:18.683Z,101031.86
2019-05-22T15:05:47.519Z,101032.92
2019-05-22T15:08:16.247Z,101030.84
2019-05-22T15:10:45.701Z,101025.19
2019-05-22T15:13:14.676Z,101024.56
2019-05-22T15:15:43.801Z,101020.84
2019-05-22T15:18:12.734Z,101024.63
2019-05-22T15:21:01.417Z,101020.71
2019-05-22T15:23:31.299Z,101018.72
2019-05-22T15:26:00.739Z,101009.78
2019-05-22T15:28:29.643Z,101019.38
2019-05-22T15:30:58.385Z,101018.17
2019-05-22T15:33:27.877Z,101018.56
2019-05-22T15:35:56.940Z,101015.09
2019-05-22T15:38:30.234Z,101004.37
2019-05-22T15:40:59.068Z,101011.26
2019-05-22T15:43:27.961Z,101011.38
2019-05-22T15:45:58.591Z,101002.70
2019-05-22T15:48:30.098Z,101004.23
2019-05-22T15:51:02.522Z,101002.34
2019-05-22T15:53:31.779Z,101001.14
2019-05-22T15:56:02.388Z,101003.80
2019-05-22T15:58:32.954Z,100999.03
2019-05-22T16:01:02.747Z,100997.47
2019-05-22T16:03:31.957Z,101001.37
2019-05-22T16:06:00.662Z,100997.34
2019-05-22T16:08:30.164Z,100996.59
2019-05-22T16:11:00.799Z,100994.17
2019-05-22T16:13:31.647Z,100990.00
2019-05-22T16:16:00.951Z,100984.47
2019-05-22T16:18:31.930Z,100986.77
2019-05-22T16:21:02.573Z,100990.34
2019-05-22T16:23:32.628Z,100983.19
2019-05-22T16:26:02.977Z,100996.45
2019-05-22T16:28:35.895Z,100988.54
2019-05-22T16:31:02.943Z,100990.88
2019-05-22T16:33:32.099Z,100998.83
2019-05-22T16:36:01.287Z,100995.29
2019-05-22T16:38:30.199Z,100996.33
2019-05-22T16:40:58.891Z,100998.48
2019-05-22T16:43:47.258Z,101001.59
2019-05-22T16:45:59.234Z,101002.63
2019-05-22T16:48:29.641Z,101000.27
2019-05-22T16:50:58.700Z,101009.21
2019-05-22T16:53:27.515Z,101005.16
2019-05-22T16:55:57.471Z,101004.27
2019-05-22T16:58:26.734Z,100995.70
2019-05-22T17:00:56.783Z,100993.45
2019-05-22T17:03:26.775Z,100988.56
2019-05-22T17:05:55.443Z,100998.80
2019-05-22T17:08:24.174Z,100987.31
2019-05-22T17:10:52.902Z,100988.66
2019-05-22T17:13:22.067Z,100992.83
2019-05-22T17:15:51.188Z,100993.63
2019-05-22T17:18:19.945Z,100990.44
2019-05-22T17:20:48.959Z,100996.28
2019-05-22T17:23:17.573Z,101001.80
2019-05-22T17:25:46.511Z,100997.06
2019-05-22T17:28:17.019Z,101001.11
2019-05-22T17:30:46.821Z,100998.72
2019-05-22T17:33:15.786Z,100996.13
2019-05-22T17:35:44.792Z,100994.59
2019-05-22T17:38:13.862Z,100995.53
2019-05-22T17:40:42.754Z,100993.02
2019-05-22T17:43:12.070Z,100998.56
2019-05-22T17:45:41.699Z,100996.59
2019-05-22T17:48:11.778Z,100995.16
2019-05-22T17:50:41.480Z,101000.64
2019-05-22T17:53:10.348Z,101004.86
2019-05-22T17:55:39.251Z,100995.88
2019-05-22T17:58:08.771Z,100997.76
2019-05-22T18:00:40.790Z,101002.68
2019-05-22T18:03:10.043Z,100993.41
2019-05-22T18:05:39.672Z,100996.27
2019-05-22T18:08:09.454Z,101002.73
2019-05-22T18:10:40.877Z,101006.61
2019-05-22T18:13:10.799Z,101002.13
2019-05-22T18:15:39.426Z,100998.62
2019-05-22T18:18:09.423Z,101000.78
2019-05-22T18:20:43.427Z,101003.28
2019-05-22T18:23:09.277Z,101001.06
2019-05-22T18:25:38.042Z,100998.53
2019-05-22T18:28:07.571Z,101005.24
2019-05-22T18:30:38.008Z,101015.55
2019-05-22T18:33:07.584Z,101009.53
2019-05-22T18:35:36.271Z,101008.61
2019-05-22T18:38:05.319Z,101010.53
2019-05-22T18:40:34.196Z,101006.98
2019-05-22T18:43:03.012Z,101011.82
2019-05-22T18:45:33.538Z,101017.91
2019-05-22T18:48:02.632Z,101020.66
2019-05-22T18:50:32.980Z,101021.79
2019-05-22T18:53:02.380Z,101020.13
2019-05-22T18:55:31.318Z,101023.41
2019-05-22T18:58:00.193Z,101016.95
2019-05-22T19:00:30.398Z,101020.31
2019-05-22T19:02:59.086Z,101015.97
2019-05-22T19:05:29.484Z,101018.00
2019-05-22T19:07:58.566Z,101017.36
2019-05-22T19:10:27.704Z,101023.34
2019-05-22T19:12:56.618Z,101015.83
2019-05-22T19:15:25.693Z,101017.37
2019-05-22T19:17:54.525Z,101022.87
2019-05-22T19:20:23.448Z,101023.59
2019-05-22T19:23:00.442Z,101024.35
2019-05-22T19:25:22.616Z,101028.61
2019-05-22T19:27:51.491Z,101032.89
2019-05-22T19:30:20.717Z,101031.83
2019-05-22T19:32:49.605Z,101037.08
2019-05-22T19:35:18.358Z,101039.05
2019-05-22T19:37:47.667Z,101047.23
2019-05-22T19:40:17.558Z,101048.95
2019-05-22T19:42:46.269Z,101056.41
2019-05-22T19:45:16.653Z,101057.60
2019-05-22T19:47:50.189Z,101059.64
2019-05-22T19:50:23.085Z,101067.77
2019-05-22T19:52:55.677Z,101072.55
2019-05-22T19:55:25.788Z,101071.63
2019-05-22T19:57:55.036Z,101077.89
2019-05-22T20:00:25.176Z,101076.92
2019-05-22T20:02:54.405Z,101076.41
2019-05-22T20:05:24.041Z,101081.53
2019-05-22T20:07:53.235Z,101088.19
2019-05-22T20:10:22.069Z,101086.98
2019-05-22T20:12:51.325Z,101094.04
2019-05-22T20:15:20.480Z,101092.52
2019-05-22T20:17:49.255Z,101092.37
2019-05-22T20:20:19.295Z,101094.75
2019-05-22T20:22:48.076Z,101096.30
2019-05-22T20:25:17.161Z,101092.52
2019-05-22T20:27:45.977Z,101096.92
2019-05-22T20:30:15.780Z,101094.78
2019-05-22T20:32:45.030Z,101096.73
2019-05-22T20:35:13.801Z,101093.34
2019-05-22T20:37:45.165Z,101094.61
2019-05-22T20:40:14.279Z,101094.77
2019-05-22T20:42:44.367Z,101095.27
2019-05-22T20:45:15.146Z,101090.89
2019-05-22T20:47:46.116Z,101092.09
2019-05-22T20:50:17.099Z,101094.35
2019-05-22T20:52:46.002Z,101090.00
2019-05-22T20:55:16.650Z,101097.39
2019-05-22T20:57:45.382Z,101095.75
2019-05-22T21:00:16.935Z,101097.38
2019-05-22T21:02:46.574Z,101097.52
2019-05-22T21:05:15.792Z,101098.33
2019-05-22T21:07:49.827Z,101109.64
2019-05-22T21:10:19.910Z,101110.90
2019-05-22T21:12:48.608Z,101109.31
2019-05-22T21:15:18.206Z,101108.33
2019-05-22T21:17:47.351Z,101108.80
2019-05-22T21:20:18.595Z,101108.00
2019-05-22T21:22:47.229Z,101114.94
2019-05-22T21:25:17.025Z,101117.09
2019-05-22T21:27:45.748Z,101121.32
2019-05-22T21:30:14.975Z,101114.19
2019-05-22T21:32:44.207Z,101115.64
2019-05-22T21:35:13.999Z,101117.26
2019-05-22T21:37:42.715Z,101120.09
2019-05-22T21:40:11.951Z,101117.41
2019-05-22T21:42:41.812Z,101124.44
2019-05-22T21:45:11.244Z,101124.03
2019-05-22T21:47:41.510Z,101116.97
2019-05-22T21:50:11.093Z,101112.59
2019-05-22T21:52:40.163Z,101113.72
2019-05-22T21:55:09.452Z,101116.73
2019-05-22T21:57:38.961Z,101115.84
2019-05-22T22:00:11.116Z,101112.66
2019-05-22T22:02:44.350Z,101114.34
2019-05-22T22:05:13.734Z,101119.12
2019-05-22T22:07:43.854Z,101117.03
2019-05-22T22:10:15.277Z,101116.75
2019-05-22T22:12:44.374Z,101115.92
2019-05-22T22:15:15.169Z,101120.69
2019-05-22T22:17:43.881Z,101118.97
2019-05-22T22:20:13.020Z,101117.07
2019-05-22T22:22:41.750Z,101122.09
2019-05-22T22:25:11.108Z,101123.59
2019-05-22T22:27:40.466Z,101119.52
2019-05-22T22:30:15.643Z,101122.62
2019-05-22T22:32:45.409Z,101122.29
2019-05-22T22:35:16.405Z,101128.55
2019-05-22T22:37:46.396Z,101125.40
2019-05-22T22:40:17.742Z,101130.70
2019-05-22T22:42:48.736Z,101124.64
2019-05-22T22:45:24.433Z,101127.81
2019-05-22T22:47:54.189Z,101131.38
2019-05-22T22:50:23.323Z,101130.35
2019-05-22T22:52:52.017Z,101128.16
2019-05-22T22:55:22.277Z,101128.80
2019-05-22T22:57:52.117Z,101128.13
2019-05-22T23:00:27.132Z,101131.83
2019-05-22T23:02:56.901Z,101134.60
2019-05-22T23:05:25.582Z,101133.70
2019-05-22T23:07:54.948Z,101130.34
2019-05-22T23:10:25.697Z,101129.49
2019-05-22T23:12:54.957Z,101128.75
2019-05-22T23:15:25.609Z,101123.62
2019-05-22T23:17:55.397Z,101133.22
2019-05-22T23:20:23.074Z,101122.16
2019-05-22T23:22:50.473Z,101123.35
2019-05-22T23:25:19.581Z,101126.09
2019-05-22T23:27:48.492Z,101119.34
2019-05-22T23:30:18.653Z,101119.76
2019-05-22T23:32:47.528Z,101118.83
2019-05-22T23:35:17.329Z,101120.40
2019-05-22T23:37:46.275Z,101113.83
2019-05-22T23:40:19.706Z,101117.40
2019-05-22T23:42:49.310Z,101109.47
2019-05-22T23:45:20.381Z,101115.50
2019-05-22T23:48:14.245Z,101112.88
2019-05-22T23:50:44.663Z,101112.25
2019-05-22T23:53:13.431Z,101112.75
2019-05-22T23:55:43.011Z,101111.56
2019-05-22T23:58:14.292Z,101113.23
